Time;durP1;ratioP1;P1;durP2;ratioP2;P2;SDS_P1;SDS_P2;PMS_P1;PMS_P2;Temp;Humidity;BMP_temperature;BMP_pressure;BME280_temperature;BME280_humidity;BME280_pressure;Samples;Min_cycle;Max_cycle;Signal;HPM_P1;HPM_P2
2022/01/06 00:02:24;;;;;;;5.00;1.73;;;1.00;99.90;;;;;;6214070;23;20457;-57
2022/01/06 00:04:50;;;;;;;5.27;1.50;;;1.00;99.90;;;;;;6213190;23;20169;-56
2022/01/06 00:07:16;;;;;;;2.83;1.77;;;1.00;1.00;;;;;;6212722;23;20370;-56
2022/01/06 00:09:41;;;;;;;5.20;1.93;;;0.90;1.00;;;;;;6213928;23;20245;-56
2022/01/06 00:12:11;;;;;;;6.63;1.70;;;0.80;1.00;;;;;;6213181;23;20185;-57
2022/01/06 00:14:52;;;;;;;6.17;2.13;;;0.80;1.00;;;;;;6214071;23;20150;-57
2022/01/06 00:17:35;;;;;;;3.93;1.40;;;0.70;1.00;;;;;;6213274;23;20366;-56
2022/01/06 00:25:29;;;;;;;5.90;3.33;;;0.50;1.00;;;;;;6213250;23;20361;-56
2022/01/06 00:27:54;;;;;;;10.50;1.60;;;0.50;10.80;;;;;;6213917;23;20366;-56
2022/01/06 00:30:20;;;;;;;8.90;1.47;;;0.50;48.30;;;;;;6213645;23;20157;-56
2022/01/06 00:32:45;;;;;;;10.23;1.30;;;0.40;99.90;;;;;;6212210;23;20190;-56
2022/01/06 00:35:11;;;;;;;1.33;1.10;;;0.40;99.90;;;;;;6213672;23;20153;-56
2022/01/06 00:37:36;;;;;;;9.07;1.60;;;0.30;99.90;;;;;;6212216;23;20159;-56
2022/01/06 00:40:02;;;;;;;3.17;1.67;;;0.30;99.90;;;;;;6187014;23;20206;-56
2022/01/06 00:42:28;;;;;;;2.90;1.30;;;0.30;99.90;;;;;;6212943;23;20471;-56
2022/01/06 00:44:53;;;;;;;3.90;1.60;;;0.20;99.90;;;;;;6212968;23;20369;-56
2022/01/06 00:47:20;;;;;;;2.60;1.30;;;0.20;1.00;;;;;;6212730;23;20158;-57
2022/01/06 00:49:47;;;;;;;9.97;2.00;;;0.20;1.00;;;;;;6213637;23;20162;-56
2022/01/06 00:52:12;;;;;;;4.90;1.67;;;0.20;1.00;;;;;;6212316;23;20761;-56
2022/01/06 00:54:38;;;;;;;2.73;1.50;;;0.10;1.00;;;;;;6212657;23;20369;-56
2022/01/06 00:57:04;;;;;;;3.50;1.60;;;0.10;1.00;;;;;;6212047;23;20218;-56
2022/01/06 00:59:30;;;;;;;4.00;2.10;;;0.10;1.00;;;;;;6212728;23;20189;-56
2022/01/06 01:01:55;;;;;;;5.00;2.20;;;0.00;99.90;;;;;;6213377;23;20374;-57
2022/01/06 01:04:21;;;;;;;6.40;3.00;;;0.00;99.90;;;;;;6212840;23;20618;-56
2022/01/06 01:06:47;;;;;;;4.93;2.20;;;-0.10;1.00;;;;;;6209988;23;20934;-57
2022/01/06 01:09:12;;;;;;;14.23;2.40;;;-0.10;1.00;;;;;;6213016;23;20158;-57
2022/01/06 01:11:38;;;;;;;6.03;1.97;;;-0.10;1.00;;;;;;6212590;23;20232;-56
2022/01/06 01:14:18;;;;;;;9.20;1.60;;;-0.20;99.90;;;;;;6211936;23;20233;-55
2022/01/06 01:16:53;;;;;;;7.33;1.67;;;-0.20;99.90;;;;;;6212201;23;20814;-57
2022/01/06 01:19:20;;;;;;;9.73;2.23;;;-0.20;1.00;;;;;;6212468;23;20425;-57
2022/01/06 01:21:45;;;;;;;4.10;1.63;;;-0.20;76.60;;;;;;6212680;23;20416;-56
2022/01/06 01:24:11;;;;;;;3.83;1.40;;;-0.20;99.90;;;;;;6212908;23;20381;-56
2022/01/06 01:26:37;;;;;;;9.13;2.13;;;-0.20;99.90;;;;;;6212564;23;20185;-56
2022/01/06 01:29:03;;;;;;;3.03;1.47;;;-0.20;1.00;;;;;;6211878;23;20146;-57
2022/01/06 01:31:35;;;;;;;3.60;1.43;;;-0.20;99.90;;;;;;6212689;23;20946;-57
2022/01/06 01:34:08;;;;;;;4.80;1.53;;;-0.30;13.60;;;;;;6211912;23;20377;-56
2022/01/06 01:36:33;;;;;;;2.40;1.47;;;-0.30;99.90;;;;;;6213206;23;20381;-57
2022/01/06 01:38:59;;;;;;;7.47;1.67;;;-0.30;99.90;;;;;;6213336;23;20664;-56
2022/01/06 01:41:25;;;;;;;8.67;1.60;;;-0.30;99.90;;;;;;6213643;23;20209;-56
2022/01/06 01:43:53;;;;;;;7.00;2.03;;;-0.20;99.90;;;;;;6213425;23;20213;-56
2022/01/06 01:46:27;;;;;;;7.40;1.63;;;-0.30;99.90;;;;;;6213369;23;20161;-56
2022/01/06 01:49:12;;;;;;;6.63;1.57;;;-0.20;99.90;;;;;;6211831;23;20384;-56
2022/01/06 01:51:38;;;;;;;5.73;1.30;;;-0.10;99.90;;;;;;6213011;23;20445;-56
2022/01/06 01:54:05;;;;;;;4.40;1.20;;;-0.10;1.00;;;;;;6213590;23;21073;-57
2022/01/06 01:56:30;;;;;;;2.87;1.47;;;-0.10;1.00;;;;;;6213538;23;20376;-56
2022/01/06 01:58:56;;;;;;;4.53;1.30;;;-0.10;99.90;;;;;;6212809;23;20365;-57
2022/01/06 02:01:22;;;;;;;7.07;2.00;;;-0.10;99.90;;;;;;6213571;23;20200;-56
2022/01/06 02:03:48;;;;;;;13.30;1.43;;;-0.10;41.70;;;;;;6213195;23;20233;-58
2022/01/06 02:06:15;;;;;;;5.23;1.67;;;-0.10;99.90;;;;;;6211953;23;20165;-56
2022/01/06 02:08:40;;;;;;;2.63;1.60;;;-0.20;1.00;;;;;;6213488;23;20370;-56
2022/01/06 02:11:06;;;;;;;5.53;1.60;;;-0.20;1.00;;;;;;6213459;23;20424;-56
2022/01/06 02:13:31;;;;;;;6.53;1.57;;;-0.20;99.90;;;;;;6213732;23;20231;-56
2022/01/06 02:16:00;;;;;;;3.43;1.60;;;-0.20;99.90;;;;;;6213665;23;20208;-56
2022/01/06 02:18:27;;;;;;;3.90;1.23;;;-0.20;99.90;;;;;;6186948;23;20158;-56
2022/01/06 02:20:53;;;;;;;3.30;1.23;;;-0.20;1.00;;;;;;6213516;23;20421;-56
2022/01/06 02:23:21;;;;;;;3.80;1.30;;;-0.10;99.90;;;;;;6213357;23;20666;-56
2022/01/06 02:25:48;;;;;;;4.00;1.53;;;-0.10;99.90;;;;;;6212842;23;20162;-56
2022/01/06 02:28:20;;;;;;;5.83;1.60;;;-0.10;1.00;;;;;;6212924;23;20673;-56
2022/01/06 02:30:50;;;;;;;3.20;1.70;;;-0.10;1.00;;;;;;6212775;23;20831;-56
2022/01/06 02:33:15;;;;;;;21.63;2.13;;;-0.10;1.00;;;;;;6212079;23;20387;-56
2022/01/06 02:35:41;;;;;;;5.23;1.53;;;0.00;1.00;;;;;;6212702;23;20374;-57
2022/01/06 02:38:09;;;;;;;2.30;1.13;;;0.00;1.00;;;;;;6212823;23;20149;-56
2022/01/06 02:40:34;;;;;;;1.33;1.00;;;0.00;99.90;;;;;;6213007;23;20191;-56
2022/01/06 02:43:02;;;;;;;8.10;1.30;;;0.10;25.00;;;;;;6213357;23;20357;-55
2022/01/06 02:45:29;;;;;;;7.40;1.37;;;0.00;1.00;;;;;;6213688;23;20467;-55
2022/01/06 02:47:56;;;;;;;4.57;1.20;;;0.10;1.00;;;;;;6213787;23;20389;-56
2022/01/06 02:50:23;;;;;;;5.23;1.40;;;0.00;1.00;;;;;;6213380;23;20401;-56
2022/01/06 02:52:48;;;;;;;4.90;1.40;;;0.10;1.00;;;;;;6213281;23;20495;-55
2022/01/06 02:55:15;;;;;;;4.50;1.23;;;0.10;99.90;;;;;;6212894;23;20408;-55
2022/01/06 02:57:43;;;;;;;6.27;1.40;;;0.10;99.90;;;;;;6212375;23;20548;-55
2022/01/06 03:00:12;;;;;;;4.30;1.37;;;0.00;99.90;;;;;;6212680;23;20494;-56
2022/01/06 03:02:38;;;;;;;5.50;1.60;;;0.10;99.90;;;;;;6212884;23;20378;-56
2022/01/06 03:05:04;;;;;;;2.17;1.10;;;0.10;99.90;;;;;;6212860;23;20366;-56
2022/01/06 03:07:31;;;;;;;1.37;1.03;;;0.00;99.90;;;;;;6212418;23;20380;-55
2022/01/06 03:09:58;;;;;;;4.37;1.40;;;0.00;99.90;;;;;;6212723;23;20386;-55
2022/01/06 03:12:29;;;;;;;2.40;0.90;;;0.00;99.90;;;;;;6212851;23;20608;-56
2022/01/06 03:14:55;;;;;;;2.63;1.57;;;-0.10;99.90;;;;;;6212727;23;20449;-55
2022/01/06 03:17:21;;;;;;;2.63;1.00;;;-0.10;99.90;;;;;;6212535;23;20393;-55
2022/01/06 03:19:46;;;;;;;2.73;1.60;;;-0.10;99.90;;;;;;6212715;23;20189;-55
2022/01/06 03:22:13;;;;;;;2.50;1.00;;;-0.10;99.90;;;;;;6212678;23;20147;-55
2022/01/06 03:24:39;;;;;;;3.10;1.80;;;-0.10;99.90;;;;;;6213006;23;20216;-55
2022/01/06 03:27:05;;;;;;;2.90;1.30;;;-0.10;99.90;;;;;;6212425;23;20389;-55
2022/01/06 03:29:30;;;;;;;4.93;1.10;;;-0.20;99.90;;;;;;6212868;23;20366;-55
2022/01/06 03:31:56;;;;;;;2.50;1.13;;;-0.20;99.90;;;;;;6214870;23;20233;-55
2022/01/06 03:34:21;;;;;;;5.50;1.50;;;-0.20;1.00;;;;;;6215137;23;20592;-55
2022/01/06 03:36:47;;;;;;;2.73;1.30;;;-0.20;1.00;;;;;;6215389;23;20177;-55
2022/01/06 03:39:12;;;;;;;3.50;1.40;;;-0.20;99.90;;;;;;6214998;23;20158;-55
2022/01/06 03:41:38;;;;;;;6.07;1.40;;;-0.10;99.90;;;;;;6213238;23;20229;-55
2022/01/06 03:44:04;;;;;;;7.47;1.53;;;-0.10;99.90;;;;;;6214722;23;20143;-55
2022/01/06 03:46:30;;;;;;;1.20;1.10;;;-0.10;99.90;;;;;;6214639;23;20607;-55
2022/01/06 03:48:55;;;;;;;2.10;1.30;;;-0.10;99.90;;;;;;6215065;23;20147;-57
2022/01/06 03:51:23;;;;;;;3.37;1.63;;;-0.10;99.90;;;;;;6214905;23;20209;-55
2022/01/06 03:53:50;;;;;;;4.00;1.40;;;-0.10;1.00;;;;;;6214660;23;20143;-55
2022/01/06 03:56:15;;;;;;;7.73;1.60;;;-0.10;99.90;;;;;;6212707;23;20442;-55
2022/01/06 03:58:41;;;;;;;3.23;1.43;;;0.00;1.00;;;;;;6214575;23;20373;-55
2022/01/06 04:01:07;;;;;;;12.93;2.40;;;-0.10;99.90;;;;;;6214677;23;20205;-55
2022/01/06 04:03:33;;;;;;;5.87;1.50;;;-0.10;99.90;;;;;;6214917;23;20561;-55
2022/01/06 04:05:58;;;;;;;5.13;1.77;;;-0.10;1.00;;;;;;6214838;23;20372;-55
2022/01/06 04:08:24;;;;;;;5.60;1.90;;;-0.10;99.90;;;;;;6214547;23;20207;-55
2022/01/06 04:10:50;;;;;;;3.43;1.60;;;-0.10;1.00;;;;;;6214432;23;20441;-55
2022/01/06 04:13:16;;;;;;;9.03;2.10;;;-0.20;1.00;;;;;;6214594;23;20161;-55
2022/01/06 04:15:43;;;;;;;4.03;1.93;;;-0.20;1.00;;;;;;6214490;23;20370;-55
2022/01/06 04:18:09;;;;;;;5.77;1.53;;;-0.20;1.00;;;;;;6214465;23;20226;-55
2022/01/06 04:20:34;;;;;;;5.53;1.83;;;-0.20;1.00;;;;;;6214729;23;20512;-56
2022/01/06 04:23:00;;;;;;;4.97;2.00;;;-0.10;1.00;;;;;;6214739;23;20153;-55
2022/01/06 04:25:25;;;;;;;7.47;1.80;;;-0.10;1.00;;;;;;6214876;23;20154;-55
2022/01/06 04:27:51;;;;;;;6.00;1.87;;;-0.10;1.00;;;;;;6214719;23;20246;-55
2022/01/06 04:30:16;;;;;;;2.33;1.80;;;-0.10;1.00;;;;;;6214464;23;20162;-55
2022/01/06 04:32:42;;;;;;;4.67;1.80;;;-0.10;1.00;;;;;;6214347;23;20184;-56
2022/01/06 04:35:08;;;;;;;8.80;1.60;;;-0.10;1.00;;;;;;6214370;23;20153;-55
2022/01/06 04:37:34;;;;;;;3.30;1.70;;;-0.10;1.00;;;;;;6213384;23;20246;-55
2022/01/06 04:40:00;;;;;;;4.83;1.60;;;-0.20;1.00;;;;;;6214263;23;20433;-55
2022/01/06 04:42:25;;;;;;;3.47;1.50;;;-0.20;1.00;;;;;;6186973;23;20154;-55
2022/01/06 04:44:51;;;;;;;7.63;1.83;;;-0.20;1.00;;;;;;6214462;23;20139;-56
2022/01/06 04:47:16;;;;;;;5.10;2.10;;;-0.20;54.20;;;;;;6187838;23;20566;-56
2022/01/06 04:49:42;;;;;;;3.67;1.67;;;-0.20;52.60;;;;;;6214506;23;20237;-55
2022/01/06 04:52:07;;;;;;;4.13;1.60;;;-0.20;1.00;;;;;;6214150;23;20206;-55
2022/01/06 04:54:33;;;;;;;2.53;1.70;;;-0.30;1.00;;;;;;6214256;23;20146;-55
2022/01/06 04:56:58;;;;;;;7.50;2.10;;;-0.30;99.90;;;;;;6213828;23;20158;-55
2022/01/06 04:59:24;;;;;;;5.67;1.90;;;-0.30;99.90;;;;;;6213901;23;20497;-56
2022/01/06 05:01:49;;;;;;;4.83;1.70;;;-0.40;99.90;;;;;;6214263;23;20864;-55
2022/01/06 05:04:15;;;;;;;6.73;1.70;;;-0.40;99.90;;;;;;6213815;23;20597;-55
2022/01/06 05:06:41;;;;;;;4.63;1.70;;;-0.50;99.90;;;;;;6213535;23;20150;-55
2022/01/06 05:09:06;;;;;;;4.20;1.40;;;-0.50;1.00;;;;;;6214085;23;20146;-55
2022/01/06 05:11:32;;;;;;;5.27;1.80;;;-0.50;1.00;;;;;;6214201;23;20518;-55
2022/01/06 05:13:57;;;;;;;5.40;1.60;;;-0.50;1.00;;;;;;6214013;23;20561;-55
2022/01/06 05:16:23;;;;;;;4.30;1.80;;;-0.50;1.00;;;;;;6214204;23;20147;-55
2022/01/06 05:18:49;;;;;;;2.70;1.60;;;-0.50;1.00;;;;;;6214244;23;20200;-55
2022/01/06 05:21:14;;;;;;;4.53;1.50;;;-0.50;99.90;;;;;;6213937;23;20181;-55
2022/01/06 05:23:41;;;;;;;2.50;1.33;;;-0.50;1.00;;;;;;6214319;23;20182;-55
2022/01/06 05:26:07;;;;;;;6.40;1.77;;;-0.50;99.90;;;;;;6213406;23;20150;-56
2022/01/06 05:28:32;;;;;;;5.03;1.63;;;-0.50;99.90;;;;;;6213788;23;20370;-55
2022/01/06 05:30:58;;;;;;;5.17;2.10;;;-0.50;99.80;;;;;;6211996;23;20376;-55
2022/01/06 05:33:24;;;;;;;6.57;2.40;;;-0.50;99.90;;;;;;6213930;23;20154;-55
2022/01/06 05:35:50;;;;;;;4.87;2.10;;;-0.50;99.90;;;;;;6213246;23;20146;-55
2022/01/06 05:38:16;;;;;;;3.87;1.80;;;-0.50;99.90;;;;;;6187189;23;20484;-56
2022/01/06 05:40:41;;;;;;;2.43;1.87;;;-0.50;1.00;;;;;;6213821;23;20397;-55
2022/01/06 05:43:07;;;;;;;2.30;1.70;;;-0.50;99.90;;;;;;6214170;23;20146;-55
2022/01/06 05:45:33;;;;;;;8.20;2.00;;;-0.40;99.90;;;;;;6213530;23;20151;-55
2022/01/06 05:47:58;;;;;;;5.73;1.87;;;-0.40;1.00;;;;;;6213435;23;20154;-55
2022/01/06 05:50:24;;;;;;;4.90;1.70;;;-0.40;1.00;;;;;;6213508;23;20170;-55
2022/01/06 05:52:49;;;;;;;7.67;2.37;;;-0.40;1.00;;;;;;6213177;23;20213;-55
2022/01/06 05:55:15;;;;;;;6.60;2.20;;;-0.50;93.50;;;;;;6186908;23;20198;-55
2022/01/06 05:57:40;;;;;;;5.60;1.90;;;-0.40;1.00;;;;;;6213484;23;20142;-56
2022/01/06 06:00:08;;;;;;;10.30;1.90;;;-0.30;99.90;;;;;;6213574;23;20528;-55
2022/01/06 06:02:34;;;;;;;7.70;2.20;;;-0.20;1.00;;;;;;6213818;23;20168;-55
2022/01/06 06:05:00;;;;;;;5.03;1.97;;;-0.10;1.00;;;;;;6213755;23;20366;-55
2022/01/06 06:07:26;;;;;;;2.70;1.47;;;-0.10;1.00;;;;;;6213108;23;20154;-56
2022/01/06 06:09:51;;;;;;;5.50;1.60;;;-0.20;1.00;;;;;;6213573;23;20693;-56
2022/01/06 06:12:17;;;;;;;5.83;2.40;;;-0.20;1.00;;;;;;6213593;23;20157;-55
2022/01/06 06:14:43;;;;;;;4.17;1.47;;;-0.10;99.90;;;;;;6213654;23;20213;-55
2022/01/06 06:17:09;;;;;;;3.40;1.80;;;-0.10;1.00;;;;;;6213474;23;20378;-56
2022/01/06 06:19:35;;;;;;;15.83;2.27;;;-0.10;1.00;;;;;;6213442;23;20624;-57
2022/01/06 06:22:00;;;;;;;5.47;1.97;;;-0.20;1.00;;;;;;6213977;23;20216;-55
2022/01/06 06:24:26;;;;;;;6.20;2.30;;;-0.20;99.90;;;;;;6213775;23;20464;-55
2022/01/06 06:26:52;;;;;;;6.40;2.10;;;-0.10;1.00;;;;;;6213366;23;20213;-55
2022/01/06 06:29:19;;;;;;;5.20;1.57;;;-0.10;1.00;;;;;;6213336;23;20237;-56
2022/01/06 06:31:45;;;;;;;2.23;1.47;;;0.00;1.00;;;;;;6213432;23;20229;-57
2022/01/06 06:34:11;;;;;;;9.57;1.70;;;0.00;99.90;;;;;;6213090;23;20471;-56
2022/01/06 06:36:37;;;;;;;15.70;2.17;;;0.00;99.90;;;;;;6212934;23;20147;-55
2022/01/06 06:39:03;;;;;;;6.80;2.00;;;0.10;99.90;;;;;;6213033;23;20876;-56
2022/01/06 06:41:28;;;;;;;5.23;2.03;;;0.00;99.90;;;;;;6213089;23;20896;-55
2022/01/06 06:43:54;;;;;;;7.87;2.67;;;0.10;1.00;;;;;;6213711;23;20400;-56
2022/01/06 06:46:19;;;;;;;6.33;1.87;;;0.10;98.20;;;;;;6213454;23;20143;-55
2022/01/06 06:48:45;;;;;;;8.67;2.40;;;0.10;99.90;;;;;;6213266;23;20472;-56
2022/01/06 06:51:11;;;;;;;10.50;3.37;;;0.10;1.00;;;;;;6213777;23;20190;-56
2022/01/06 06:53:36;;;;;;;3.00;1.90;;;0.00;99.90;;;;;;6213493;23;20597;-56
2022/01/06 06:56:02;;;;;;;10.13;2.73;;;0.00;1.00;;;;;;6213657;23;20170;-57
2022/01/06 06:58:28;;;;;;;5.33;1.80;;;0.10;1.00;;;;;;6213253;23;20171;-56
2022/01/06 07:00:53;;;;;;;8.17;2.70;;;0.10;1.00;;;;;;6213146;23;20228;-55
2022/01/06 07:03:19;;;;;;;6.80;2.23;;;0.10;99.90;;;;;;6212942;23;20155;-56
2022/01/06 07:05:44;;;;;;;10.03;2.43;;;0.10;1.00;;;;;;6212877;23;20139;-56
2022/01/06 07:08:10;;;;;;;4.47;2.20;;;0.10;1.00;;;;;;6213288;23;20174;-56
2022/01/06 07:10:35;;;;;;;11.63;2.00;;;0.00;1.00;;;;;;6212985;23;20475;-56
2022/01/06 07:13:01;;;;;;;8.53;2.47;;;0.00;78.50;;;;;;6213024;23;20169;-56
2022/01/06 07:15:27;;;;;;;10.70;2.80;;;0.00;1.00;;;;;;6212770;23;20470;-56
2022/01/06 07:17:53;;;;;;;4.30;1.70;;;0.00;99.90;;;;;;6212581;23;20142;-56
2022/01/06 07:20:18;;;;;;;6.10;2.13;;;-0.10;99.90;;;;;;6210654;23;20416;-56
2022/01/06 07:22:45;;;;;;;4.70;2.00;;;-0.10;99.90;;;;;;6212647;23;20150;-56
2022/01/06 07:25:10;;;;;;;4.90;2.27;;;-0.10;1.00;;;;;;6212702;23;20147;-55
2022/01/06 07:27:36;;;;;;;7.40;2.70;;;-0.20;1.00;;;;;;6212768;23;20639;-52
2022/01/06 07:30:04;;;;;;;6.70;2.33;;;-0.10;1.00;;;;;;6212712;23;20163;-53
2022/01/06 07:32:29;;;;;;;5.67;1.90;;;-0.10;1.00;;;;;;6212295;23;20245;-53
2022/01/06 07:34:55;;;;;;;4.53;2.30;;;-0.10;99.90;;;;;;6212866;23;20413;-53
2022/01/06 07:37:20;;;;;;;6.40;1.90;;;-0.20;1.00;;;;;;6212689;23;20150;-53
2022/01/06 07:39:46;;;;;;;5.60;2.30;;;-0.10;99.90;;;;;;6213170;23;20265;-53
2022/01/06 07:42:12;;;;;;;8.90;2.67;;;0.00;99.90;;;;;;6213248;23;20151;-53
2022/01/06 07:44:37;;;;;;;3.90;1.97;;;0.00;1.00;;;;;;6212990;23;20166;-53
2022/01/06 07:47:03;;;;;;;6.53;2.47;;;0.00;99.90;;;;;;6212955;23;20155;-53
2022/01/06 07:49:29;;;;;;;4.27;2.00;;;-0.10;99.90;;;;;;6212855;23;20147;-53
2022/01/06 07:51:55;;;;;;;10.40;2.30;;;0.00;49.80;;;;;;6213187;23;20486;-53
2022/01/06 07:54:21;;;;;;;6.30;1.83;;;0.00;1.00;;;;;;6213079;23;20453;-53
2022/01/06 07:56:47;;;;;;;6.90;2.43;;;0.00;54.40;;;;;;6213016;23;20276;-53
2022/01/06 07:59:12;;;;;;;4.63;2.53;;;0.00;1.00;;;;;;6213203;23;20413;-53
2022/01/06 08:01:38;;;;;;;15.10;3.07;;;0.10;1.00;;;;;;6210633;23;20150;-53
2022/01/06 08:04:04;;;;;;;8.10;3.20;;;0.00;1.00;;;;;;6212747;23;20139;-53
2022/01/06 08:06:29;;;;;;;7.23;2.97;;;0.10;99.90;;;;;;6211627;23;20887;-52
2022/01/06 08:08:55;;;;;;;5.73;2.90;;;0.10;1.00;;;;;;6212163;23;20536;-53
2022/01/06 08:11:20;;;;;;;5.17;2.93;;;0.00;1.00;;;;;;6212013;23;20170;-53
2022/01/06 08:13:46;;;;;;;11.63;3.30;;;0.00;99.90;;;;;;6211933;23;20154;-53
2022/01/06 08:16:11;;;;;;;7.17;3.33;;;0.00;1.00;;;;;;6212806;23;20147;-53
2022/01/06 08:18:37;;;;;;;6.20;3.40;;;0.10;99.90;;;;;;6213522;23;20220;-53
2022/01/06 08:21:03;;;;;;;6.30;2.43;;;0.20;99.90;;;;;;6213701;23;20197;-53
2022/01/06 08:23:28;;;;;;;6.60;2.47;;;0.30;1.00;;;;;;6213827;23;20146;-53
2022/01/06 08:25:55;;;;;;;3.23;2.20;;;0.30;9.50;;;;;;6214665;23;20147;-53
2022/01/06 08:28:21;;;;;;;6.73;2.40;;;0.30;1.00;;;;;;6213657;23;20178;-53
2022/01/06 08:30:47;;;;;;;8.83;2.00;;;0.40;99.90;;;;;;6213110;23;20382;-53
2022/01/06 08:33:12;;;;;;;6.53;2.30;;;0.40;99.90;;;;;;6214116;23;20228;-53
2022/01/06 08:35:38;;;;;;;11.50;2.90;;;0.40;99.90;;;;;;6215806;23;20167;-53
2022/01/06 08:38:03;;;;;;;13.43;2.50;;;0.40;99.90;;;;;;6214340;23;20604;-53
2022/01/06 08:40:30;;;;;;;5.13;2.33;;;0.50;99.90;;;;;;6213700;23;20175;-53
2022/01/06 08:42:56;;;;;;;7.50;2.83;;;0.50;99.90;;;;;;6213402;23;20158;-53
2022/01/06 08:45:22;;;;;;;10.50;2.10;;;0.50;38.70;;;;;;6213846;23;20365;-53
2022/01/06 08:47:48;;;;;;;7.70;2.33;;;0.50;1.00;;;;;;6213403;23;20216;-53
2022/01/06 08:50:15;;;;;;;7.27;2.07;;;0.60;1.00;;;;;;6213855;23;20784;-53
2022/01/06 08:52:41;;;;;;;6.53;2.50;;;0.60;1.00;;;;;;6212618;23;20841;-53
2022/01/06 08:55:07;;;;;;;7.60;2.40;;;0.60;21.10;;;;;;6209754;23;20161;-53
2022/01/06 08:57:33;;;;;;;8.23;2.13;;;0.60;99.90;;;;;;6213356;23;20165;-55
2022/01/06 09:00:00;;;;;;;8.53;2.50;;;0.70;1.00;;;;;;6213123;23;20725;-53
2022/01/06 09:02:26;;;;;;;4.60;2.00;;;0.70;1.00;;;;;;6214034;23;20670;-53
2022/01/06 09:04:53;;;;;;;5.57;2.40;;;0.80;1.00;;;;;;6213647;23;20366;-54
2022/01/06 09:07:18;;;;;;;7.47;2.40;;;0.80;99.90;;;;;;6213784;23;20524;-52
2022/01/06 09:09:44;;;;;;;5.03;1.67;;;0.80;1.00;;;;;;6214354;23;20440;-57
2022/01/06 09:12:17;;;;;;;4.03;1.70;;;0.90;1.00;;;;;;6214053;23;20146;-57
2022/01/06 09:14:43;;;;;;;7.57;1.83;;;0.90;99.90;;;;;;6214259;23;20157;-57
2022/01/06 09:17:09;;;;;;;8.20;2.03;;;1.00;42.70;;;;;;6213283;23;20370;-57
2022/01/06 09:19:34;;;;;;;9.67;2.90;;;1.00;1.00;;;;;;6213650;23;20436;-57
2022/01/06 09:22:00;;;;;;;6.57;2.20;;;1.10;99.90;;;;;;6214197;23;20165;-56
2022/01/06 09:24:25;;;;;;;7.33;1.60;;;1.10;93.70;;;;;;6214230;23;20166;-57
2022/01/06 09:26:51;;;;;;;4.60;1.60;;;1.10;1.00;;;;;;6214791;23;20159;-57
2022/01/06 09:29:17;;;;;;;5.67;2.23;;;1.20;99.90;;;;;;6213861;23;20142;-57
2022/01/06 09:31:42;;;;;;;6.40;1.70;;;1.30;99.90;;;;;;6214077;23;20209;-57
2022/01/06 09:34:09;;;;;;;6.10;2.73;;;1.40;1.00;;;;;;6214488;23;20143;-56
2022/01/06 09:36:36;;;;;;;7.37;2.23;;;1.40;1.00;;;;;;6213994;23;20174;-56
2022/01/06 09:39:04;;;;;;;9.63;2.90;;;1.50;99.90;;;;;;6214094;23;20382;-57
2022/01/06 09:41:30;;;;;;;5.23;1.93;;;1.50;1.00;;;;;;6214017;23;20521;-56
2022/01/06 09:43:57;;;;;;;4.10;1.53;;;1.50;1.00;;;;;;6214210;23;20465;-57
2022/01/06 09:46:24;;;;;;;3.90;1.63;;;1.50;1.00;;;;;;6214131;23;20239;-56
2022/01/06 09:48:50;;;;;;;5.03;1.70;;;1.60;99.90;;;;;;6214405;23;20362;-56
2022/01/06 09:51:17;;;;;;;5.87;1.87;;;1.70;99.90;;;;;;6213967;23;20492;-57
2022/01/06 09:53:43;;;;;;;5.23;1.60;;;1.70;91.20;;;;;;6212793;23;20366;-56
2022/01/06 09:56:09;;;;;;;3.80;1.73;;;1.80;24.80;;;;;;6213089;23;20386;-56
2022/01/06 09:58:35;;;;;;;5.00;2.00;;;1.80;1.00;;;;;;6208206;23;20887;-57
2022/01/06 10:01:00;;;;;;;7.70;1.90;;;1.80;1.00;;;;;;6211050;23;20421;-57
2022/01/06 10:09:35;;;;;;;7.30;1.80;;;2.00;1.00;;;;;;6186358;22;20389;-51
2022/01/06 10:12:07;;;;;;;2.63;1.70;;;2.10;1.00;;;;;;6154530;23;20413;-52
2022/01/06 10:14:45;;;;;;;6.03;1.60;;;2.20;1.00;;;;;;6151729;23;20359;-51
2022/01/06 10:17:16;;;;;;;4.97;1.53;;;2.20;1.00;;;;;;6151073;23;20815;-52
2022/01/06 10:19:44;;;;;;;3.70;1.67;;;2.30;99.90;;;;;;6149809;23;20514;-51
2022/01/06 10:22:17;;;;;;;6.60;2.00;;;2.30;99.90;;;;;;6148775;23;20853;-51
2022/01/06 10:24:44;;;;;;;3.33;1.27;;;2.40;99.90;;;;;;6124949;23;20383;-51
2022/01/06 10:27:12;;;;;;;4.50;1.53;;;2.50;99.90;;;;;;6150950;23;20414;-51
2022/01/06 10:29:42;;;;;;;7.77;1.63;;;2.60;99.90;;;;;;6152672;23;20376;-51
2022/01/06 10:32:10;;;;;;;14.10;2.20;;;2.70;99.90;;;;;;6152754;23;20832;-51
2022/01/06 10:34:39;;;;;;;3.40;1.50;;;2.80;99.90;;;;;;6153052;23;20775;-50
2022/01/06 10:37:22;;;;;;;5.10;1.50;;;3.10;99.90;;;;;;6152658;23;20375;-50
2022/01/06 10:39:50;;;;;;;3.77;1.60;;;3.40;99.90;;;;;;6152769;23;20494;-50
2022/01/06 10:42:17;;;;;;;3.80;1.60;;;3.50;49.60;;;;;;6152706;23;20387;-49
2022/01/06 10:44:51;;;;;;;4.57;1.93;;;3.90;13.10;;;;;;6152730;23;20414;-51
2022/01/06 10:47:38;;;;;;;2.70;1.50;;;4.80;1.00;;;;;;6153087;23;20442;-51
2022/01/06 10:50:21;;;;;;;3.47;2.07;;;5.70;1.00;;;;;;6152547;23;20367;-50
2022/01/06 10:52:53;;;;;;;5.50;1.60;;;6.30;1.00;;;;;;6151352;23;20375;-50
2022/01/06 10:55:27;;;;;;;5.93;1.63;;;7.10;1.00;;;;;;6152385;23;20399;-51
2022/01/06 10:58:05;;;;;;;5.87;1.70;;;8.20;1.00;;;;;;6152967;23;20455;-51
2022/01/06 11:00:34;;;;;;;3.97;1.30;;;10.00;1.00;;;;;;6152699;23;20414;-50
2022/01/06 11:03:16;;;;;;;6.57;1.50;;;11.70;99.90;;;;;;6153048;23;20692;-51
2022/01/06 11:05:45;;;;;;;5.97;1.70;;;13.80;99.90;;;;;;6152665;23;20368;-50
2022/01/06 11:08:13;;;;;;;5.27;1.80;;;15.30;99.90;;;;;;6152658;23;20698;-50
2022/01/06 11:11:01;;;;;;;5.10;1.67;;;16.40;99.90;;;;;;6165067;23;20608;-50
2022/01/06 11:13:30;;;;;;;5.90;1.70;;;16.90;99.90;;;;;;6182203;23;20451;-50
2022/01/06 11:15:57;;;;;;;3.50;1.90;;;16.80;99.90;;;;;;6182736;23;20469;-51
2022/01/06 11:18:23;;;;;;;2.90;1.77;;;15.70;99.90;;;;;;6182211;23;20401;-50
2022/01/06 11:20:50;;;;;;;4.47;1.90;;;14.20;99.90;;;;;;6182388;23;20414;-50
2022/01/06 11:23:23;;;;;;;5.63;1.33;;;13.10;99.90;;;;;;6182036;23;20605;-51
2022/01/06 11:26:21;;;;;;;4.00;1.50;;;12.00;99.90;;;;;;6182376;23;20383;-50
2022/01/06 11:28:58;;;;;;;4.53;1.50;;;11.60;99.90;;;;;;6180783;23;20493;-50
2022/01/06 11:31:26;;;;;;;5.80;1.57;;;11.90;99.90;;;;;;6182411;23;20861;-50
2022/01/06 11:33:53;;;;;;;4.30;1.70;;;12.00;99.90;;;;;;6182252;23;20799;-51
2022/01/06 11:36:29;;;;;;;2.40;1.40;;;11.50;99.90;;;;;;6182671;23;20539;-51
2022/01/06 11:38:57;;;;;;;4.67;1.50;;;11.50;99.90;;;;;;6181886;23;20370;-51
2022/01/06 11:41:35;;;;;;;5.53;1.60;;;10.90;99.90;;;;;;6182054;23;20494;-50
2022/01/06 11:44:02;;;;;;;5.43;1.80;;;10.60;99.90;;;;;;6181093;23;20384;-51
2022/01/06 11:46:43;;;;;;;6.60;1.60;;;10.30;99.90;;;;;;6182060;23;20393;-51
2022/01/06 11:49:09;;;;;;;7.00;1.83;;;9.70;99.90;;;;;;6182051;23;20370;-52
2022/01/06 11:51:37;;;;;;;5.50;2.00;;;9.40;99.90;;;;;;6183236;23;20382;-52
2022/01/06 11:54:19;;;;;;;5.73;1.53;;;9.20;99.90;;;;;;6184178;23;20375;-52
2022/01/06 11:56:49;;;;;;;6.33;2.20;;;9.20;99.90;;;;;;6184009;23;20383;-52
2022/01/06 11:59:16;;;;;;;5.47;2.10;;;9.10;99.90;;;;;;6183906;23;20382;-52
2022/01/06 12:01:50;;;;;;;7.47;1.90;;;9.10;99.90;;;;;;6184473;23;20680;-53
2022/01/06 12:04:21;;;;;;;5.43;2.00;;;9.50;99.90;;;;;;6183796;23;20410;-51
2022/01/06 12:06:47;;;;;;;4.70;1.57;;;9.80;99.90;;;;;;6157735;23;20401;-53
2022/01/06 12:09:23;;;;;;;5.17;1.60;;;9.70;99.90;;;;;;6184466;23;20731;-52
2022/01/06 12:12:04;;;;;;;5.30;1.50;;;9.90;99.90;;;;;;6185324;23;20812;-51
2022/01/06 12:14:30;;;;;;;5.73;1.50;;;10.00;99.90;;;;;;6192421;23;20377;-51
2022/01/06 12:17:10;;;;;;;4.30;1.57;;;9.90;99.90;;;;;;6184325;23;20367;-51
2022/01/06 12:19:37;;;;;;;3.40;1.10;;;9.80;99.90;;;;;;6183679;23;20450;-53
2022/01/06 12:22:04;;;;;;;4.30;1.20;;;9.90;99.90;;;;;;6184656;23;20422;-53
2022/01/06 12:24:30;;;;;;;2.50;1.10;;;10.20;99.90;;;;;;6158695;23;20932;-53
2022/01/06 12:26:56;;;;;;;5.70;1.63;;;10.80;99.90;;;;;;6185228;23;20410;-51
2022/01/06 12:29:26;;;;;;;5.70;1.40;;;11.70;99.90;;;;;;6185441;23;20140;-52
2022/01/06 12:32:03;;;;;;;2.67;1.40;;;12.70;99.90;;;;;;6186011;23;20238;-51
2022/01/06 12:34:29;;;;;;;3.33;1.40;;;14.30;99.90;;;;;;6188067;23;20359;-52
2022/01/06 12:36:55;;;;;;;3.43;1.10;;;15.60;99.90;;;;;;6187402;23;20442;-52
2022/01/06 12:39:22;;;;;;;1.90;1.10;;;16.50;99.90;;;;;;6184112;23;20422;-52
2022/01/06 12:41:50;;;;;;;2.70;1.20;;;16.70;99.90;;;;;;6185762;23;20159;-52
2022/01/06 12:44:25;;;;;;;5.33;1.40;;;16.30;99.90;;;;;;6184245;23;20379;-52
2022/01/06 12:46:51;;;;;;;4.73;1.47;;;17.00;99.90;;;;;;6183383;23;20816;-52
2022/01/06 12:49:21;;;;;;;7.00;1.47;;;17.80;99.90;;;;;;6183596;23;20450;-53
2022/01/06 12:51:48;;;;;;;4.73;1.30;;;18.50;99.90;;;;;;6183615;23;20160;-52
2022/01/06 12:54:17;;;;;;;4.77;1.10;;;19.00;99.90;;;;;;6183534;23;20681;-52
2022/01/06 12:56:54;;;;;;;4.00;1.20;;;19.70;99.90;;;;;;6183394;23;20378;-52
2022/01/06 12:59:26;;;;;;;4.80;1.73;;;20.10;99.90;;;;;;6183499;23;20362;-51
2022/01/06 13:01:54;;;;;;;2.70;1.30;;;20.30;99.90;;;;;;6183296;23;20386;-52
2022/01/06 13:04:27;;;;;;;3.40;1.30;;;20.40;99.90;;;;;;6183073;23;20371;-52
2022/01/06 13:07:07;;;;;;;2.33;1.60;;;19.90;99.90;;;;;;6183493;23;20396;-52
2022/01/06 13:09:34;;;;;;;6.17;2.07;;;19.80;99.90;;;;;;6183562;23;20398;-51